createdAt,value
2017-08-01T00:00:11.568Z,4.53
2017-08-01T00:02:39.189Z,5.50
2017-08-01T00:05:06.871Z,5.17
2017-08-01T00:07:34.644Z,5.73
2017-08-01T00:10:02.273Z,5.10
2017-08-01T00:12:30.060Z,5.20
2017-08-01T00:14:57.693Z,4.30
2017-08-01T00:17:25.317Z,5.30
2017-08-01T00:19:52.992Z,5.80
2017-08-01T00:22:20.615Z,5.30
2017-08-01T00:24:48.228Z,5.20
2017-08-01T00:27:15.885Z,5.20
2017-08-01T00:29:44.264Z,5.20
2017-08-01T00:32:12.655Z,5.10
2017-08-01T00:34:40.467Z,4.90
2017-08-01T00:37:08.081Z,4.97
2017-08-01T00:39:35.704Z,4.63
2017-08-01T00:42:03.693Z,5.87
2017-08-01T00:44:31.317Z,6.47
2017-08-01T00:46:58.941Z,5.50
2017-08-01T00:49:26.609Z,4.60
2017-08-01T00:51:54.224Z,5.37
2017-08-01T00:54:21.971Z,5.00
2017-08-01T00:56:49.643Z,4.63
2017-08-01T00:59:17.262Z,5.67
2017-08-01T01:01:44.880Z,5.00
2017-08-01T01:04:13.191Z,5.17
2017-08-01T01:06:40.803Z,4.60
2017-08-01T01:09:08.408Z,5.30
2017-08-01T01:11:36.082Z,5.67
2017-08-01T01:14:03.716Z,5.30
2017-08-01T01:16:31.336Z,4.83
2017-08-01T01:18:59.009Z,4.53
2017-08-01T01:21:26.779Z,4.30
2017-08-01T01:23:54.391Z,5.30
2017-08-01T01:26:22.050Z,5.23
2017-08-01T01:28:49.673Z,4.90
2017-08-01T01:31:17.353Z,5.80
2017-08-01T01:33:45.087Z,5.70
2017-08-01T01:36:12.750Z,6.13
2017-08-01T01:38:40.445Z,6.07
2017-08-01T01:41:08.940Z,5.97
2017-08-01T01:43:36.594Z,4.73
2017-08-01T01:46:04.253Z,5.53
2017-08-01T01:48:31.973Z,5.40
2017-08-01T01:50:59.656Z,5.90
2017-08-01T01:53:27.927Z,5.20
2017-08-01T01:55:55.602Z,4.97
2017-08-01T01:58:23.254Z,5.97
2017-08-01T02:00:50.918Z,6.40
2017-08-01T02:03:18.601Z,5.80
2017-08-01T02:05:46.223Z,6.30
2017-08-01T02:08:14.014Z,5.80
2017-08-01T02:10:41.705Z,5.67
2017-08-01T02:13:13.534Z,6.70
2017-08-01T02:15:41.248Z,5.70
2017-08-01T02:18:09.696Z,5.53
2017-08-01T02:20:37.389Z,5.40
2017-08-01T02:23:05.126Z,5.07
2017-08-01T02:25:32.980Z,5.97
2017-08-01T02:28:00.630Z,4.97
2017-08-01T02:30:28.338Z,5.37
2017-08-01T02:32:55.973Z,5.87
2017-08-01T02:35:23.734Z,5.40
2017-08-01T02:37:51.424Z,5.40
2017-08-01T02:40:19.272Z,5.83
2017-08-01T02:42:46.905Z,6.07
2017-08-01T02:45:14.567Z,5.33
2017-08-01T02:47:42.181Z,6.03
2017-08-01T02:50:09.800Z,6.00
2017-08-01T02:52:37.797Z,5.33
2017-08-01T02:55:05.504Z,6.27
2017-08-01T02:57:33.892Z,5.77
2017-08-01T03:00:01.564Z,5.30
2017-08-01T03:02:29.182Z,5.43
2017-08-01T03:04:56.805Z,5.80
2017-08-01T03:07:24.468Z,5.97
2017-08-01T03:09:52.364Z,5.77
2017-08-01T03:12:19.997Z,6.37
2017-08-01T03:14:47.777Z,5.20
2017-08-01T03:17:15.375Z,5.40
2017-08-01T03:19:43.002Z,6.00
2017-08-01T03:22:10.884Z,6.67
2017-08-01T03:24:38.500Z,7.13
2017-08-01T03:27:06.131Z,6.20
2017-08-01T03:29:33.804Z,6.70
2017-08-01T03:32:01.428Z,6.00
2017-08-01T03:34:29.037Z,5.47
2017-08-01T03:36:56.714Z,5.53
2017-08-01T03:39:24.360Z,5.77
2017-08-01T03:41:52.748Z,6.13
2017-08-01T03:44:20.428Z,5.23
2017-08-01T03:46:48.056Z,6.37
2017-08-01T03:49:15.680Z,5.90
2017-08-01T03:51:43.361Z,7.70
2017-08-01T03:54:10.988Z,6.87
2017-08-01T03:56:38.613Z,6.47
2017-08-01T03:59:06.273Z,7.50
2017-08-01T04:01:33.891Z,6.73
2017-08-01T04:04:01.517Z,6.27
2017-08-01T04:06:29.272Z,6.10
2017-08-01T04:08:56.980Z,6.10
2017-08-01T04:11:24.596Z,6.40
2017-08-01T04:13:52.269Z,7.80
2017-08-01T04:16:19.893Z,7.47
2017-08-01T04:18:47.838Z,7.03
2017-08-01T04:21:15.514Z,6.93
2017-08-01T04:23:43.142Z,7.10
2017-08-01T04:26:10.760Z,6.73
2017-08-01T04:28:38.421Z,5.60
2017-08-01T04:31:06.694Z,7.10
2017-08-01T04:33:34.544Z,6.63
2017-08-01T04:36:02.224Z,6.37
2017-08-01T04:38:29.858Z,5.73
2017-08-01T04:40:57.625Z,7.40
2017-08-01T04:43:25.293Z,7.33
2017-08-01T04:45:53.047Z,8.77
2017-08-01T04:48:20.660Z,6.97
2017-08-01T04:50:48.468Z,5.60
2017-08-01T04:53:16.145Z,5.97
2017-08-01T04:55:43.911Z,8.17
2017-08-01T04:58:11.602Z,7.73
2017-08-01T05:00:39.288Z,6.10
2017-08-01T05:03:06.908Z,7.50
2017-08-01T05:05:34.957Z,8.40
2017-08-01T05:08:02.738Z,8.33
2017-08-01T05:10:30.353Z,7.67
2017-08-01T05:12:58.027Z,6.60
2017-08-01T05:15:25.648Z,8.00
2017-08-01T05:17:53.272Z,7.80
2017-08-01T05:20:20.950Z,6.83
2017-08-01T05:22:48.565Z,7.13
2017-08-01T05:25:16.196Z,6.67
2017-08-01T05:27:43.868Z,7.07
2017-08-01T05:30:11.705Z,7.67
2017-08-01T05:32:39.637Z,6.77
2017-08-01T05:35:07.316Z,6.57
2017-08-01T05:37:34.942Z,6.40
2017-08-01T05:40:03.384Z,6.40
2017-08-01T05:42:31.052Z,5.97
2017-08-01T05:44:58.676Z,5.87
2017-08-01T05:47:26.866Z,5.90
2017-08-01T05:49:54.525Z,5.07
2017-08-01T05:52:22.156Z,4.90
2017-08-01T05:54:50.541Z,5.90
2017-08-01T05:57:18.979Z,5.20
2017-08-01T05:59:46.595Z,6.60
2017-08-01T06:02:14.235Z,6.03
2017-08-01T06:04:41.935Z,6.00
2017-08-01T06:07:09.549Z,6.43
2017-08-01T06:09:37.160Z,6.50
2017-08-01T06:12:04.857Z,7.00
2017-08-01T06:14:32.525Z,5.97
2017-08-01T06:17:00.144Z,7.20
2017-08-01T06:19:27.815Z,5.50
2017-08-01T06:21:55.447Z,5.73
2017-08-01T06:24:23.380Z,6.50
2017-08-01T06:26:51.048Z,6.33
2017-08-01T06:29:18.668Z,6.00
2017-08-01T06:31:46.290Z,5.87
2017-08-01T06:34:13.985Z,6.30
2017-08-01T06:36:41.613Z,6.30
2017-08-01T06:39:09.236Z,6.27
2017-08-01T06:41:37.182Z,6.60
2017-08-01T06:44:04.798Z,6.30
2017-08-01T06:46:32.420Z,6.90
2017-08-01T06:49:00.760Z,6.60
2017-08-01T06:51:29.173Z,5.60
2017-08-01T06:53:56.792Z,5.93
2017-08-01T06:56:24.457Z,6.30
2017-08-01T06:58:52.232Z,5.90
2017-08-01T07:01:19.858Z,5.63
2017-08-01T07:03:47.531Z,4.90
2017-08-01T07:06:15.152Z,5.57
2017-08-01T07:08:42.774Z,5.57
2017-08-01T07:11:10.464Z,5.30
2017-08-01T07:13:38.081Z,5.50
2017-08-01T07:16:05.836Z,4.93
2017-08-01T07:18:34.213Z,5.60
2017-08-01T07:21:01.832Z,4.60
2017-08-01T07:23:29.469Z,5.37
2017-08-01T07:25:58.201Z,4.57
2017-08-01T07:28:25.813Z,5.33
2017-08-01T07:30:53.423Z,4.93
2017-08-01T07:33:21.084Z,4.90
2017-08-01T07:35:48.715Z,5.00
2017-08-01T07:38:16.337Z,5.63
2017-08-01T07:40:44.329Z,5.03
2017-08-01T07:43:11.950Z,4.70
2017-08-01T07:45:39.639Z,4.97
2017-08-01T07:48:07.325Z,5.07
2017-08-01T07:50:34.958Z,5.27
2017-08-01T07:53:02.572Z,4.60
2017-08-01T07:55:30.260Z,4.20
2017-08-01T07:57:57.888Z,4.33
2017-08-01T08:00:26.276Z,4.90
2017-08-01T08:02:54.724Z,5.27
2017-08-01T08:05:22.775Z,4.80
2017-08-01T08:07:50.721Z,4.70
2017-08-01T08:10:18.374Z,4.50
2017-08-01T08:12:45.995Z,4.20
2017-08-01T08:15:13.579Z,4.43
2017-08-01T08:17:41.594Z,4.33
2017-08-01T08:20:09.228Z,4.87
2017-08-01T08:22:36.850Z,4.77
2017-08-01T08:25:04.513Z,5.30
2017-08-01T08:27:32.133Z,4.93
2017-08-01T08:29:59.765Z,4.40
2017-08-01T08:32:28.208Z,4.87
2017-08-01T08:34:55.828Z,4.73
2017-08-01T08:37:23.625Z,5.07
2017-08-01T08:39:51.296Z,5.20
2017-08-01T08:42:18.921Z,5.27
2017-08-01T08:44:46.542Z,4.37
2017-08-01T08:47:14.209Z,4.60
2017-08-01T08:49:41.838Z,5.10
2017-08-01T08:52:09.460Z,5.10
2017-08-01T08:54:37.145Z,5.00
2017-08-01T08:57:04.771Z,4.60
2017-08-01T08:59:32.439Z,4.60
2017-08-01T09:02:00.368Z,4.90
2017-08-01T09:04:28.002Z,4.53
2017-08-01T09:06:55.682Z,4.00
2017-08-01T09:09:23.341Z,4.40
2017-08-01T09:11:50.971Z,4.80
2017-08-01T09:14:18.596Z,5.20
2017-08-01T09:16:46.265Z,4.57
2017-08-01T09:19:13.894Z,4.47
2017-08-01T09:21:41.532Z,4.63
2017-08-01T09:24:09.208Z,4.90
2017-08-01T09:26:36.832Z,4.30
2017-08-01T09:29:05.219Z,4.57
2017-08-01T09:31:32.945Z,4.50
2017-08-01T09:34:00.590Z,4.97
2017-08-01T09:36:28.560Z,4.50
2017-08-01T09:38:56.326Z,4.60
2017-08-01T09:41:23.965Z,4.60
2017-08-01T09:43:51.637Z,5.60
2017-08-01T09:46:19.317Z,4.73
2017-08-01T09:48:46.942Z,5.30
2017-08-01T09:51:14.566Z,5.87
2017-08-01T09:53:42.229Z,4.67
2017-08-01T09:56:09.863Z,5.37
2017-08-01T09:58:37.517Z,4.87
2017-08-01T10:01:05.241Z,5.47
2017-08-01T10:03:33.626Z,4.53
2017-08-01T10:06:02.030Z,4.90
2017-08-01T10:08:29.712Z,4.90
2017-08-01T10:10:57.330Z,5.37
2017-08-01T10:13:25.710Z,5.57
2017-08-01T10:15:53.422Z,5.50
2017-08-01T10:18:21.033Z,5.00
2017-08-01T10:20:48.647Z,5.10
2017-08-01T10:23:16.312Z,5.57
2017-08-01T10:25:44.184Z,5.43
2017-08-01T10:28:11.856Z,5.30
2017-08-01T10:30:39.618Z,5.00
2017-08-01T10:33:07.444Z,6.30
2017-08-01T10:35:35.080Z,4.83
2017-08-01T10:38:02.777Z,5.50
2017-08-01T10:40:30.411Z,5.37
2017-08-01T10:42:58.796Z,5.20
2017-08-01T10:45:27.503Z,5.90
2017-08-01T10:47:55.129Z,5.20
2017-08-01T10:50:22.741Z,5.17
2017-08-01T10:52:50.394Z,5.00
2017-08-01T10:55:18.018Z,5.00
2017-08-01T10:57:45.638Z,5.67
2017-08-01T11:00:13.312Z,5.20
2017-08-01T11:02:40.938Z,6.00
2017-08-01T11:05:08.566Z,5.10
2017-08-01T11:07:36.232Z,5.27
2017-08-01T11:10:04.021Z,5.60
2017-08-01T11:12:31.633Z,5.60
2017-08-01T11:14:59.394Z,5.60
2017-08-01T11:17:27.065Z,5.33
2017-08-01T11:19:54.685Z,6.07
2017-08-01T11:22:22.349Z,5.40
2017-08-01T11:24:49.972Z,6.10
2017-08-01T11:27:17.607Z,6.30
2017-08-01T11:29:45.268Z,6.20
2017-08-01T11:32:13.166Z,5.10
2017-08-01T11:34:40.785Z,5.80
2017-08-01T11:37:08.449Z,7.00
2017-08-01T11:39:36.060Z,6.03
2017-08-01T11:42:03.984Z,6.70
2017-08-01T11:44:31.967Z,8.07
2017-08-01T11:46:59.600Z,5.97
2017-08-01T11:49:27.282Z,5.77
2017-08-01T11:51:54.985Z,6.80
2017-08-01T11:54:22.625Z,6.03
2017-08-01T11:56:50.242Z,6.00
2017-08-01T11:59:17.928Z,6.10
2017-08-01T12:01:45.555Z,6.17
2017-08-01T12:04:13.182Z,6.80
2017-08-01T12:06:40.939Z,6.80
2017-08-01T12:09:08.553Z,6.23
2017-08-01T12:11:36.182Z,6.03
2017-08-01T12:14:03.851Z,6.50
2017-08-01T12:16:31.473Z,6.70
2017-08-01T12:18:59.092Z,6.70
2017-08-01T12:21:26.772Z,6.77
2017-08-01T12:23:54.396Z,6.17
2017-08-01T12:26:22.022Z,7.20
2017-08-01T12:28:49.696Z,6.50
2017-08-01T12:31:17.321Z,6.87
2017-08-01T12:33:44.942Z,6.50
2017-08-01T12:36:12.617Z,6.70
2017-08-01T12:38:41.009Z,5.87
2017-08-01T12:41:09.658Z,6.80
2017-08-01T12:43:37.329Z,6.60
2017-08-01T12:46:04.968Z,7.00
2017-08-01T12:48:32.595Z,5.90
2017-08-01T12:51:00.271Z,6.60
2017-08-01T12:53:27.892Z,6.13
2017-08-01T12:55:56.860Z,6.53
2017-08-01T12:58:24.689Z,7.03
2017-08-01T13:00:52.305Z,6.60
2017-08-01T13:03:19.944Z,6.53
2017-08-01T13:05:47.613Z,6.73
2017-08-01T13:08:15.258Z,6.40
2017-08-01T13:10:42.870Z,7.47
2017-08-01T13:13:11.314Z,6.43
2017-08-01T13:15:38.940Z,6.50
2017-08-01T13:18:06.569Z,6.33
2017-08-01T13:20:34.545Z,6.10
2017-08-01T13:23:02.939Z,6.83
2017-08-01T13:25:30.574Z,6.33
2017-08-01T13:27:58.243Z,6.10
2017-08-01T13:30:25.871Z,7.70
2017-08-01T13:32:53.492Z,6.40
2017-08-01T13:35:21.481Z,6.87
2017-08-01T13:37:49.106Z,6.37
2017-08-01T13:40:16.729Z,5.90
2017-08-01T13:42:44.434Z,6.30
2017-08-01T13:45:12.837Z,7.10
2017-08-01T13:47:40.637Z,6.50
2017-08-01T13:50:08.314Z,6.37
2017-08-01T13:52:35.940Z,6.30
2017-08-01T13:55:03.564Z,6.70
2017-08-01T13:57:31.221Z,7.27
2017-08-01T13:59:58.847Z,6.03
2017-08-01T14:02:26.469Z,7.43
2017-08-01T14:04:54.137Z,6.50
2017-08-01T14:07:21.755Z,6.80
2017-08-01T14:09:49.365Z,6.00
2017-08-01T14:12:17.285Z,6.40
2017-08-01T14:14:44.918Z,6.37
2017-08-01T14:17:12.544Z,7.20
2017-08-01T14:19:40.984Z,6.50
2017-08-01T14:22:08.740Z,6.37
2017-08-01T14:24:36.365Z,6.23
2017-08-01T14:27:04.032Z,7.07
2017-08-01T14:29:31.648Z,7.03
2017-08-01T14:31:59.266Z,5.60
2017-08-01T14:34:28.398Z,6.17
2017-08-01T14:36:56.017Z,7.83
2017-08-01T14:39:23.632Z,6.60
2017-08-01T14:41:51.733Z,7.03
2017-08-01T14:44:20.123Z,7.03
2017-08-01T14:46:47.752Z,6.70
2017-08-01T14:49:15.421Z,7.30
2017-08-01T14:51:43.045Z,6.10
2017-08-01T14:54:10.663Z,7.20
2017-08-01T14:56:38.324Z,7.03
2017-08-01T14:59:06.757Z,6.90
2017-08-01T15:01:34.434Z,6.40
2017-08-01T15:04:02.128Z,7.07
2017-08-01T15:06:29.746Z,7.60
2017-08-01T15:08:57.374Z,6.20
2017-08-01T15:11:25.035Z,6.23
2017-08-01T15:13:52.735Z,6.90
2017-08-01T15:16:20.358Z,6.63
2017-08-01T15:18:48.044Z,7.10
2017-08-01T15:21:15.665Z,7.30
2017-08-01T15:23:44.056Z,6.53
2017-08-01T15:26:12.500Z,6.33
2017-08-01T15:28:40.120Z,6.83
2017-08-01T15:31:07.732Z,7.23
2017-08-01T15:33:35.394Z,6.57
2017-08-01T15:36:03.021Z,7.33
2017-08-01T15:38:30.652Z,6.90
2017-08-01T15:40:59.103Z,7.00
2017-08-01T15:43:26.777Z,6.90
2017-08-01T15:45:54.402Z,6.80
2017-08-01T15:48:22.987Z,6.40
2017-08-01T15:50:50.663Z,7.37
2017-08-01T15:53:18.519Z,7.97
2017-08-01T15:55:46.593Z,7.43
2017-08-01T15:58:14.222Z,7.53
2017-08-01T16:00:41.843Z,7.10
2017-08-01T16:03:09.526Z,7.70
2017-08-01T16:05:37.961Z,7.70
2017-08-01T16:08:05.574Z,6.77
2017-08-01T16:10:33.404Z,7.07
2017-08-01T16:13:01.104Z,7.10
2017-08-01T16:15:28.721Z,6.77
2017-08-01T16:17:56.375Z,6.77
2017-08-01T16:20:24.180Z,7.07
2017-08-01T16:22:51.793Z,7.40
2017-08-01T16:25:19.481Z,6.80
2017-08-01T16:27:47.096Z,6.87
2017-08-01T16:30:14.724Z,6.80
2017-08-01T16:32:42.393Z,6.20
2017-08-01T16:35:10.018Z,6.77
2017-08-01T16:37:37.650Z,7.03
2017-08-01T16:40:05.448Z,7.20
2017-08-01T16:42:33.073Z,6.23
2017-08-01T16:45:00.698Z,6.70
2017-08-01T16:47:28.384Z,6.30
2017-08-01T16:49:56.766Z,6.90
2017-08-01T16:52:25.152Z,6.87
2017-08-01T16:54:53.868Z,6.30
2017-08-01T16:57:21.562Z,6.33
2017-08-01T16:59:49.172Z,6.60
2017-08-01T17:02:16.848Z,7.00
2017-08-01T17:04:44.459Z,6.40
2017-08-01T17:07:12.077Z,6.20
2017-08-01T17:09:39.733Z,5.87
2017-08-01T17:12:07.361Z,7.90
2017-08-01T17:14:35.305Z,7.60
2017-08-01T17:17:02.988Z,7.33
2017-08-01T17:19:30.833Z,8.70
2017-08-01T17:21:58.462Z,6.90
2017-08-01T17:24:26.423Z,8.87
2017-08-01T17:26:54.134Z,7.37
2017-08-01T17:29:21.771Z,7.33
2017-08-01T17:31:49.754Z,8.00
2017-08-01T17:34:17.376Z,7.63
2017-08-01T17:36:45.505Z,7.40
2017-08-01T17:39:13.500Z,7.80
2017-08-01T17:41:41.665Z,8.97
2017-08-01T17:44:09.293Z,8.67
2017-08-01T17:46:36.968Z,7.17
2017-08-01T17:49:04.593Z,7.63
2017-08-01T17:51:32.799Z,8.57
2017-08-01T17:54:01.469Z,9.00
2017-08-01T17:56:29.103Z,9.33
2017-08-01T17:58:57.015Z,8.10
2017-08-01T18:01:24.788Z,8.73
2017-08-01T18:03:52.545Z,8.80
2017-08-01T18:06:20.337Z,8.17
2017-08-01T18:08:48.329Z,8.80
2017-08-01T18:11:15.976Z,9.27
2017-08-01T18:13:43.604Z,9.13
2017-08-01T18:16:11.285Z,9.93
2017-08-01T18:18:38.903Z,8.10
2017-08-01T18:21:06.561Z,7.93
2017-08-01T18:23:34.300Z,8.53
2017-08-01T18:26:04.816Z,8.20
2017-08-01T18:28:32.930Z,10.23
2017-08-01T18:31:01.010Z,6.67
2017-08-01T18:33:29.062Z,8.03
2017-08-01T18:35:57.863Z,9.17
2017-08-01T18:38:26.084Z,11.03
2017-08-01T18:40:53.821Z,9.47
2017-08-01T18:43:22.540Z,12.47
2017-08-01T18:45:50.372Z,10.30
2017-08-01T18:48:18.380Z,11.37
2017-08-01T18:50:46.224Z,11.83
2017-08-01T18:53:14.016Z,13.57
2017-08-01T18:55:42.369Z,12.87
2017-08-01T18:58:10.361Z,11.50
2017-08-01T19:00:38.785Z,10.27
2017-08-01T19:03:07.826Z,12.23
2017-08-01T19:05:35.597Z,12.77
2017-08-01T19:08:03.295Z,11.13
2017-08-01T19:10:32.022Z,14.03
2017-08-01T19:12:59.819Z,13.57
2017-08-01T19:15:27.571Z,12.73
2017-08-01T19:17:55.954Z,12.83
2017-08-01T19:20:23.620Z,12.70
2017-08-01T19:22:51.487Z,12.17
2017-08-01T19:25:19.128Z,10.47
2017-08-01T19:27:46.935Z,11.63
2017-08-01T19:30:15.396Z,11.97
2017-08-01T19:32:43.041Z,13.10
2017-08-01T19:35:10.718Z,13.33
2017-08-01T19:37:38.490Z,12.40
2017-08-01T19:40:06.551Z,12.50
2017-08-01T19:42:34.530Z,15.00
2017-08-01T19:45:02.573Z,13.40
2017-08-01T19:47:30.524Z,12.67
2017-08-01T19:49:58.779Z,10.10
2017-08-01T19:52:27.432Z,10.00
2017-08-01T19:54:55.062Z,9.77
2017-08-01T19:57:22.732Z,10.50
2017-08-01T19:59:50.732Z,10.20
2017-08-01T20:02:18.794Z,7.97
2017-08-01T20:04:47.281Z,11.53
2017-08-01T20:07:14.993Z,10.23
2017-08-01T20:09:42.841Z,10.80
2017-08-01T20:12:10.534Z,9.20
2017-08-01T20:14:38.207Z,9.50
2017-08-01T20:17:05.832Z,11.77
2017-08-01T20:19:33.683Z,11.53
2017-08-01T20:22:01.337Z,14.40
2017-08-01T20:24:28.998Z,11.40
2017-08-01T20:26:56.762Z,12.13
2017-08-01T20:29:24.441Z,10.87
2017-08-01T20:31:53.432Z,10.70
2017-08-01T20:34:22.732Z,11.50
2017-08-01T20:36:51.127Z,10.67
2017-08-01T20:39:19.196Z,12.00
2017-08-01T20:41:46.837Z,10.37
2017-08-01T20:44:15.641Z,12.73
2017-08-01T20:46:43.312Z,9.97
2017-08-01T20:49:11.134Z,10.97
2017-08-01T20:51:40.167Z,11.27
2017-08-01T20:54:07.910Z,11.70
2017-08-01T20:56:35.574Z,13.03
2017-08-01T20:59:03.602Z,11.00
2017-08-01T21:01:31.264Z,10.00
2017-08-01T21:03:59.663Z,11.60
2017-08-01T21:06:28.152Z,11.27
2017-08-01T21:09:13.655Z,11.17
2017-08-01T21:11:41.885Z,10.63
2017-08-01T21:14:11.961Z,11.40
2017-08-01T21:16:39.604Z,13.20
2017-08-01T21:19:07.281Z,13.37
2017-08-01T21:21:34.912Z,13.20
2017-08-01T21:24:02.537Z,12.60
2017-08-01T21:26:30.202Z,12.93
2017-08-01T21:28:57.840Z,12.40
2017-08-01T21:31:25.595Z,11.00
2017-08-01T21:33:53.449Z,10.70
2017-08-01T21:36:21.057Z,9.10
2017-08-01T21:38:48.673Z,8.33
2017-08-01T21:41:16.438Z,8.40
2017-08-01T21:43:44.065Z,8.03
2017-08-01T21:46:11.681Z,6.70
2017-08-01T21:48:39.348Z,7.60
2017-08-01T21:51:07.604Z,7.73
2017-08-01T21:53:35.230Z,7.50
2017-08-01T21:56:03.031Z,7.57
2017-08-01T21:58:30.649Z,7.40
2017-08-01T22:00:58.279Z,7.17
2017-08-01T22:03:25.965Z,7.93
2017-08-01T22:05:57.316Z,7.80
2017-08-01T22:08:24.933Z,8.10
2017-08-01T22:10:52.695Z,9.67
2017-08-01T22:13:20.317Z,9.70
2017-08-01T22:15:47.945Z,8.70
2017-08-01T22:18:15.626Z,11.13
2017-08-01T22:20:44.013Z,10.17
2017-08-01T22:23:12.406Z,10.20
2017-08-01T22:25:40.084Z,10.37
2017-08-01T22:28:07.712Z,10.30
2017-08-01T22:30:35.345Z,10.50
2017-08-01T22:33:03.203Z,12.43
2017-08-01T22:35:31.028Z,11.33
2017-08-01T22:37:58.655Z,10.63
2017-08-01T22:40:26.328Z,11.70
2017-08-01T22:42:53.961Z,12.20
2017-08-01T22:45:21.585Z,12.33
2017-08-01T22:47:49.258Z,11.50
2017-08-01T22:50:16.901Z,13.03
2017-08-01T22:52:44.525Z,12.80
2017-08-01T22:55:12.391Z,13.73
2017-08-01T22:57:40.029Z,11.93
2017-08-01T23:00:07.916Z,11.57
2017-08-01T23:02:35.601Z,12.57
2017-08-01T23:05:03.481Z,13.87
2017-08-01T23:07:31.884Z,12.13
2017-08-01T23:09:59.552Z,14.73
2017-08-01T23:12:27.188Z,13.30
2017-08-01T23:14:54.804Z,13.90
2017-08-01T23:17:22.506Z,15.80
2017-08-01T23:19:50.126Z,17.50
2017-08-01T23:22:17.805Z,16.03
2017-08-01T23:24:45.475Z,14.90
2017-08-01T23:27:13.117Z,18.50
2017-08-01T23:29:40.753Z,16.60
2017-08-01T23:32:08.632Z,13.50
2017-08-01T23:34:36.260Z,16.23
2017-08-01T23:37:03.889Z,16.10
2017-08-01T23:39:31.926Z,13.70
2017-08-01T23:41:59.621Z,13.20
2017-08-01T23:44:27.249Z,15.90
2017-08-01T23:46:54.944Z,13.20
2017-08-01T23:49:22.564Z,12.53
2017-08-01T23:51:50.189Z,12.63
2017-08-01T23:54:17.877Z,11.77
2017-08-01T23:56:46.265Z,14.00
2017-08-01T23:59:13.916Z,14.60
